Portada
METAR-TAF:

METAR-TAF

Aeropuertos :

Aeropuerto de Badajoz

Badajoz, España

latitud: 38-53N, longitud: 006-49W, altitud: 185 m

Observación

El informe se hizo hace 28 minutos, a las 13:00 UTC
Viento 3 kt del norte, variando entre oeste-noroeste y este
Temperatura 18°C
Humedad 64%
Presión 1025 hPa
Visibilidad 10 km o más
sin nubes por debajo de 1500 m y sin presencia de cumulonimbus.

METAR: LEBZ 021300Z 01003KT 300V080 CAVOK 18/11 Q1025

Hora: 14:28 (13:28 UTC)

Pronóstico

El informe se hizo hace 2 horas y 28 minutos, a las 11:00 UTC
Pronóstico válido del 02 a las 12 UTC al 03 a las 12 UTC
Viento 5 kt del norte-noreste
Visibilidad 10 km o más
Escasas nubes a una altura de 4000 ft

TAF: LEBZ 021100Z 0212/0312 03005KT 9999 FEW040 TX19/0215Z TN07/0306Z

Observaciones y pronósticos meteorológicos de más de 4000 aeropuertos (mensajes METAR y TAF).

Los puntos amarillos y rojos representan las estaciones disponibles.

Ponga el ratón en el punto deseado para ver el nombre de la estación.

Haga clic para ver las observaciones y los pronósticos meteorológicos.

Para cambiar el mapa : haga clic en los botones verdes con una cruz de color negro para hacer un zoom, en el botón verde con un guión para alejar o en las flechas verdes para mapas adyacentes.


METAR-TAF: